createdAt,value
2018-09-22T00:02:25.323Z,13.30
2018-09-22T00:04:53.536Z,13.30
2018-09-22T00:07:21.730Z,13.30
2018-09-22T00:09:49.936Z,13.30
2018-09-22T00:12:18.176Z,13.20
2018-09-22T00:14:46.389Z,13.30
2018-09-22T00:17:14.600Z,13.20
2018-09-22T00:19:43.058Z,13.20
2018-09-22T00:22:11.319Z,13.20
2018-09-22T00:24:39.615Z,13.20
2018-09-22T00:27:07.982Z,13.20
2018-09-22T00:29:36.063Z,13.20
2018-09-22T00:32:04.335Z,13.10
2018-09-22T00:34:32.615Z,13.10
2018-09-22T00:37:00.895Z,13.20
2018-09-22T00:39:29.088Z,13.20
2018-09-22T00:41:57.397Z,13.10
2018-09-22T00:44:25.631Z,13.10
2018-09-22T00:46:53.843Z,13.10
2018-09-22T00:49:22.123Z,13.10
2018-09-22T00:51:50.341Z,13.10
2018-09-22T00:54:18.643Z,13.10
2018-09-22T00:56:46.807Z,13.10
2018-09-22T00:59:14.991Z,13.10
2018-09-22T01:01:43.215Z,13.00
2018-09-22T01:04:11.421Z,13.00
2018-09-22T01:06:39.601Z,12.90
2018-09-22T01:09:08.388Z,12.90
2018-09-22T01:11:37.262Z,13.00
2018-09-22T01:14:05.829Z,13.00
2018-09-22T01:16:34.181Z,13.00
2018-09-22T01:19:02.522Z,12.90
2018-09-22T01:21:30.735Z,12.90
2018-09-22T01:23:58.870Z,12.90
2018-09-22T01:26:27.333Z,12.90
2018-09-22T01:28:55.504Z,12.90
2018-09-22T01:31:23.730Z,12.80
2018-09-22T01:33:51.918Z,12.80
2018-09-22T01:36:20.895Z,12.80
2018-09-22T01:38:49.052Z,12.80
2018-09-22T01:41:17.193Z,12.80
2018-09-22T01:43:45.360Z,12.80
2018-09-22T01:46:13.577Z,12.70
2018-09-22T01:48:42.452Z,12.70
2018-09-22T01:51:10.638Z,12.70
2018-09-22T01:53:38.840Z,12.70
2018-09-22T01:56:07.226Z,12.80
2018-09-22T01:58:35.452Z,12.80
2018-09-22T02:01:03.660Z,12.80
2018-09-22T02:03:32.681Z,12.70
2018-09-22T02:06:00.852Z,12.70
2018-09-22T02:08:29.089Z,12.60
2018-09-22T02:10:57.214Z,12.60
2018-09-22T02:13:25.353Z,12.60
2018-09-22T02:15:53.486Z,12.60
2018-09-22T02:18:21.681Z,12.60
2018-09-22T02:20:50.524Z,12.50
2018-09-22T02:23:18.713Z,12.50
2018-09-22T02:25:46.985Z,12.50
2018-09-22T02:28:15.236Z,12.50
2018-09-22T02:30:43.496Z,12.50
2018-09-22T02:33:11.767Z,12.50
2018-09-22T02:35:40.063Z,12.50
2018-09-22T02:38:08.286Z,12.50
2018-09-22T02:40:36.525Z,12.60
2018-09-22T02:43:04.827Z,12.50
2018-09-22T02:45:32.983Z,12.50
2018-09-22T02:48:01.221Z,12.50
2018-09-22T02:50:29.500Z,12.50
2018-09-22T02:52:57.823Z,12.50
2018-09-22T02:55:26.073Z,12.50
2018-09-22T02:57:54.277Z,12.50
2018-09-22T03:00:22.491Z,12.50
2018-09-22T03:02:51.412Z,12.50
2018-09-22T03:05:19.695Z,12.50
2018-09-22T03:07:47.975Z,12.50
2018-09-22T03:10:16.591Z,12.40
2018-09-22T03:12:44.773Z,12.40
2018-09-22T03:15:13.041Z,12.40
2018-09-22T03:17:41.265Z,12.40
2018-09-22T03:20:09.492Z,12.40
2018-09-22T03:22:37.668Z,12.30
2018-09-22T03:25:05.968Z,12.30
2018-09-22T03:27:34.208Z,12.20
2018-09-22T03:30:02.433Z,12.20
2018-09-22T03:32:30.716Z,12.10
2018-09-22T03:34:59.003Z,12.10
2018-09-22T03:37:27.269Z,12.10
2018-09-22T03:39:55.402Z,12.10
2018-09-22T03:42:23.612Z,12.10
2018-09-22T03:44:51.888Z,12.10
2018-09-22T03:47:20.744Z,12.20
2018-09-22T03:49:48.874Z,12.20
2018-09-22T03:52:17.021Z,12.20
2018-09-22T03:54:45.191Z,12.20
2018-09-22T03:57:13.544Z,12.20
2018-09-22T03:59:41.782Z,12.20
2018-09-22T04:02:09.990Z,12.20
2018-09-22T04:04:38.270Z,12.20
2018-09-22T04:07:06.686Z,12.20
2018-09-22T04:09:35.273Z,12.10
2018-09-22T04:12:03.576Z,12.10
2018-09-22T04:14:31.780Z,12.20
2018-09-22T04:17:00.087Z,12.20
2018-09-22T04:19:28.318Z,12.10
2018-09-22T04:21:56.644Z,12.10
2018-09-22T04:24:24.898Z,12.10
2018-09-22T04:26:53.019Z,12.20
2018-09-22T04:29:21.390Z,12.40
2018-09-22T04:31:49.723Z,12.50
2018-09-22T04:34:18.230Z,12.50
2018-09-22T04:36:46.373Z,12.50
2018-09-22T04:39:14.593Z,12.40
2018-09-22T04:41:43.837Z,12.40
2018-09-22T04:44:12.048Z,12.40
2018-09-22T04:46:40.234Z,12.30
2018-09-22T04:49:08.369Z,12.30
2018-09-22T04:51:36.524Z,12.40
2018-09-22T04:54:04.797Z,12.50
2018-09-22T04:56:33.059Z,12.50
2018-09-22T04:59:01.361Z,12.60
2018-09-22T05:01:29.603Z,12.50
2018-09-22T05:03:57.799Z,12.50
2018-09-22T05:06:26.053Z,12.50
2018-09-22T05:08:54.203Z,12.50
2018-09-22T05:11:23.167Z,12.40
2018-09-22T05:13:51.381Z,12.30
2018-09-22T05:16:20.464Z,12.20
2018-09-22T05:18:48.663Z,12.10
2018-09-22T05:21:16.819Z,12.10
2018-09-22T05:23:45.070Z,12.20
2018-09-22T05:26:13.258Z,12.30
2018-09-22T05:28:41.392Z,12.40
2018-09-22T05:31:13.553Z,12.40
2018-09-22T05:33:41.785Z,12.30
2018-09-22T05:36:10.481Z,12.30
2018-09-22T05:38:38.893Z,12.20
2018-09-22T05:41:07.704Z,12.20
2018-09-22T05:43:36.595Z,12.10
2018-09-22T05:46:04.834Z,12.10
2018-09-22T05:48:33.039Z,12.10
2018-09-22T05:51:01.313Z,12.10
2018-09-22T05:53:29.558Z,12.10
2018-09-22T05:55:57.725Z,12.10
2018-09-22T05:58:25.936Z,12.20
2018-09-22T06:00:54.532Z,12.20
2018-09-22T06:03:22.855Z,12.20
2018-09-22T06:05:51.014Z,12.30
2018-09-22T06:08:19.364Z,12.30
2018-09-22T06:10:47.649Z,12.30
2018-09-22T06:13:15.870Z,12.40
2018-09-22T06:15:44.159Z,12.40
2018-09-22T06:18:19.038Z,12.50
2018-09-22T06:20:48.249Z,12.50
2018-09-22T06:23:16.767Z,12.60
2018-09-22T06:25:44.962Z,12.60
2018-09-22T06:28:13.144Z,12.70
2018-09-22T06:30:41.376Z,12.80
2018-09-22T06:33:09.664Z,12.90
2018-09-22T06:35:37.858Z,13.00
2018-09-22T06:38:06.157Z,13.00
2018-09-22T06:40:34.406Z,13.10
2018-09-22T06:43:02.618Z,13.20
2018-09-22T06:45:30.877Z,13.20
2018-09-22T06:47:59.138Z,13.30
2018-09-22T06:50:27.265Z,13.40
2018-09-22T06:52:55.468Z,13.50
2018-09-22T06:55:23.671Z,13.50
2018-09-22T06:57:51.818Z,13.60
2018-09-22T07:00:19.961Z,13.70
2018-09-22T07:02:48.185Z,13.70
2018-09-22T07:05:16.385Z,13.70
2018-09-22T07:07:44.545Z,13.80
2018-09-22T07:10:13.031Z,13.80
2018-09-22T07:12:41.219Z,13.90
2018-09-22T07:15:09.429Z,13.80
2018-09-22T07:17:37.615Z,13.90
2018-09-22T07:20:06.613Z,13.90
2018-09-22T07:22:40.344Z,14.00
2018-09-22T07:25:08.637Z,14.10
2018-09-22T07:27:36.856Z,14.10
2018-09-22T07:30:05.436Z,14.20
2018-09-22T07:32:33.647Z,14.30
2018-09-22T07:35:02.014Z,14.30
2018-09-22T07:37:30.196Z,14.40
2018-09-22T07:39:58.768Z,14.50
2018-09-22T07:42:27.007Z,14.50
2018-09-22T07:44:55.356Z,14.50
2018-09-22T07:47:23.640Z,14.60
2018-09-22T07:49:51.872Z,14.60
2018-09-22T07:52:20.092Z,14.60
2018-09-22T07:54:48.391Z,14.80
2018-09-22T07:57:16.573Z,14.90
2018-09-22T07:59:44.853Z,14.90
2018-09-22T08:02:12.960Z,14.80
2018-09-22T08:04:41.137Z,14.90
2018-09-22T08:07:09.402Z,14.90
2018-09-22T08:09:37.812Z,14.90
2018-09-22T08:12:06.009Z,15.00
2018-09-22T08:14:34.156Z,15.10
2018-09-22T08:17:02.408Z,15.20
2018-09-22T08:19:30.535Z,15.20
2018-09-22T08:21:58.827Z,15.30
2018-09-22T08:24:26.983Z,15.40
2018-09-22T08:26:55.248Z,15.50
2018-09-22T08:29:23.512Z,15.60
2018-09-22T08:31:51.755Z,15.80
2018-09-22T08:34:20.039Z,16.00
2018-09-22T08:36:48.339Z,16.10
2018-09-22T08:39:16.520Z,16.30
2018-09-22T08:41:44.691Z,16.50
2018-09-22T08:44:12.938Z,16.70
2018-09-22T08:46:41.898Z,16.90
2018-09-22T08:49:10.077Z,17.00
2018-09-22T08:51:38.387Z,17.20
2018-09-22T08:54:06.655Z,17.40
2018-09-22T08:56:35.006Z,17.60
2018-09-22T08:59:03.658Z,17.90
2018-09-22T09:01:31.880Z,18.00
2018-09-22T09:04:00.952Z,17.80
2018-09-22T09:06:29.136Z,18.30
2018-09-22T09:08:57.514Z,18.80
2018-09-22T09:11:25.816Z,20.00
2018-09-22T09:13:54.069Z,21.80
2018-09-22T09:16:22.402Z,23.20
2018-09-22T09:18:50.913Z,23.50
2018-09-22T09:21:19.190Z,24.50
2018-09-22T09:23:47.431Z,25.80
2018-09-22T09:26:15.621Z,26.80
2018-09-22T09:28:46.238Z,27.40
2018-09-22T09:31:15.409Z,27.50
2018-09-22T09:33:43.699Z,27.10
2018-09-22T09:36:12.131Z,27.70
2018-09-22T09:38:40.700Z,28.00
2018-09-22T09:41:09.413Z,27.10
2018-09-22T09:43:38.369Z,26.60
2018-09-22T09:46:06.832Z,26.60
2018-09-22T09:48:35.086Z,26.40
2018-09-22T09:51:03.352Z,26.20
2018-09-22T09:53:31.951Z,25.30
2018-09-22T09:56:01.092Z,23.90
2018-09-22T09:58:29.354Z,23.50
2018-09-22T10:00:57.570Z,23.40
2018-09-22T10:03:25.727Z,23.40
2018-09-22T10:05:54.054Z,22.80
2018-09-22T10:08:22.236Z,22.30
2018-09-22T10:10:50.494Z,22.20
2018-09-22T10:13:18.758Z,22.20
2018-09-22T10:15:46.993Z,23.70
2018-09-22T10:18:15.226Z,25.30
2018-09-22T10:20:43.562Z,25.60
2018-09-22T10:23:11.789Z,25.20
2018-09-22T10:25:40.116Z,24.70
2018-09-22T10:28:08.356Z,24.10
2018-09-22T10:30:36.408Z,23.70
2018-09-22T10:33:04.648Z,23.60
2018-09-22T10:35:32.938Z,23.60
2018-09-22T10:38:01.185Z,23.70
2018-09-22T10:40:29.441Z,23.60
2018-09-22T10:42:57.608Z,23.70
2018-09-22T10:45:25.792Z,23.60
2018-09-22T10:47:53.953Z,23.20
2018-09-22T10:50:22.052Z,23.10
2018-09-22T10:52:50.434Z,23.00
2018-09-22T10:55:18.530Z,23.00
2018-09-22T10:57:46.676Z,22.90
2018-09-22T11:00:14.773Z,22.60
2018-09-22T11:02:42.987Z,22.90
2018-09-22T11:05:11.125Z,22.90
2018-09-22T11:07:39.302Z,22.90
2018-09-22T11:10:07.653Z,22.70
2018-09-22T11:12:36.012Z,22.60
2018-09-22T11:15:04.550Z,23.00
2018-09-22T11:17:32.746Z,22.90
2018-09-22T11:20:01.093Z,22.80
2018-09-22T11:22:29.263Z,23.00
2018-09-22T11:24:57.510Z,23.20
2018-09-22T11:27:25.817Z,23.90
2018-09-22T11:29:54.135Z,24.30
2018-09-22T11:32:22.316Z,24.50
2018-09-22T11:34:50.493Z,24.40
2018-09-22T11:37:18.688Z,23.90
2018-09-22T11:39:46.805Z,23.60
2018-09-22T11:42:15.617Z,23.20
2018-09-22T11:44:43.874Z,23.30
2018-09-22T11:47:12.008Z,23.00
2018-09-22T11:49:40.100Z,22.80
2018-09-22T11:52:08.228Z,22.80
2018-09-22T11:54:36.353Z,22.50
2018-09-22T11:57:04.502Z,22.70
2018-09-22T11:59:32.602Z,23.40
2018-09-22T12:02:01.375Z,24.00
2018-09-22T12:04:29.646Z,23.80
2018-09-22T12:06:57.850Z,22.90
2018-09-22T12:09:26.081Z,22.80
2018-09-22T12:11:54.410Z,22.60
2018-09-22T12:14:22.552Z,22.60
2018-09-22T12:16:50.747Z,23.00
2018-09-22T12:19:18.876Z,23.00
2018-09-22T12:21:47.065Z,23.00
2018-09-22T12:24:15.506Z,23.60
2018-09-22T12:26:43.706Z,24.10
2018-09-22T12:29:11.881Z,24.20
2018-09-22T12:31:40.191Z,24.80
2018-09-22T12:34:08.613Z,24.60
2018-09-22T12:36:36.895Z,24.00
2018-09-22T12:39:09.705Z,23.50
2018-09-22T12:41:38.429Z,23.10
2018-09-22T12:44:06.708Z,22.40
2018-09-22T12:46:35.148Z,21.90
2018-09-22T12:49:03.736Z,21.70
2018-09-22T12:51:32.051Z,21.90
2018-09-22T12:54:00.219Z,21.90
2018-09-22T12:56:28.442Z,21.80
2018-09-22T12:58:56.742Z,22.40
2018-09-22T13:01:24.939Z,22.70
2018-09-22T13:03:53.457Z,22.60
2018-09-22T13:06:21.593Z,22.50
2018-09-22T13:08:50.178Z,22.20
2018-09-22T13:11:18.657Z,22.30
2018-09-22T13:13:46.754Z,22.10
2018-09-22T13:16:14.880Z,21.70
2018-09-22T13:18:43.122Z,21.50
2018-09-22T13:21:11.334Z,21.50
2018-09-22T13:23:39.527Z,21.50
2018-09-22T13:26:07.745Z,21.40
2018-09-22T13:28:35.853Z,21.30
2018-09-22T13:31:04.261Z,21.20
2018-09-22T13:33:32.534Z,21.20
2018-09-22T13:36:00.692Z,21.30
2018-09-22T13:38:28.892Z,21.30
2018-09-22T13:40:57.066Z,21.40
2018-09-22T13:43:25.268Z,21.20
2018-09-22T13:45:54.461Z,21.00
2018-09-22T13:48:22.614Z,21.00
2018-09-22T13:50:50.904Z,20.90
2018-09-22T13:53:19.006Z,20.70
2018-09-22T13:55:47.165Z,20.40
2018-09-22T13:58:15.433Z,20.30
2018-09-22T14:00:43.680Z,20.10
2018-09-22T14:03:11.968Z,20.00
2018-09-22T14:05:40.178Z,20.10
2018-09-22T14:08:08.453Z,20.10
2018-09-22T14:10:36.854Z,20.20
2018-09-22T14:13:05.021Z,20.10
2018-09-22T14:15:33.199Z,20.00
2018-09-22T14:18:01.932Z,20.00
2018-09-22T14:20:30.183Z,20.00
2018-09-22T14:22:58.368Z,20.00
2018-09-22T14:25:26.536Z,20.00
2018-09-22T14:27:54.896Z,20.00
2018-09-22T14:30:23.322Z,20.00
2018-09-22T14:32:51.476Z,20.00
2018-09-22T14:35:19.656Z,20.00
2018-09-22T14:37:47.810Z,19.80
2018-09-22T14:40:16.866Z,19.80
2018-09-22T14:42:45.088Z,19.70
2018-09-22T14:45:13.216Z,19.70
2018-09-22T14:47:41.355Z,19.60
2018-09-22T14:50:09.530Z,19.40
2018-09-22T14:52:37.715Z,19.30
2018-09-22T14:55:06.109Z,19.20
2018-09-22T14:57:34.362Z,19.20
2018-09-22T15:00:02.549Z,19.10
2018-09-22T15:02:30.754Z,19.10
2018-09-22T15:04:58.871Z,19.00
2018-09-22T15:07:27.282Z,19.10
2018-09-22T15:09:55.540Z,19.10
2018-09-22T15:12:23.803Z,19.10
2018-09-22T15:14:52.019Z,19.10
2018-09-22T15:17:20.298Z,19.00
2018-09-22T15:19:48.546Z,19.00
2018-09-22T15:22:16.738Z,18.90
2018-09-22T15:24:44.911Z,19.00
2018-09-22T15:27:13.328Z,18.90
2018-09-22T15:29:41.591Z,18.80
2018-09-22T15:32:09.783Z,18.90
2018-09-22T15:34:37.880Z,18.90
2018-09-22T15:37:06.148Z,18.90
2018-09-22T15:39:34.187Z,18.90
2018-09-22T15:42:02.408Z,18.80
2018-09-22T15:44:30.552Z,18.80
2018-09-22T15:46:58.724Z,18.70
2018-09-22T15:49:26.862Z,18.70
2018-09-22T15:51:55.266Z,18.60
2018-09-22T15:54:23.532Z,18.50
2018-09-22T15:56:51.820Z,18.50
2018-09-22T15:59:20.020Z,18.40
2018-09-22T16:01:48.219Z,18.40
2018-09-22T16:04:16.336Z,18.30
2018-09-22T16:06:44.869Z,18.30
2018-09-22T16:09:13.087Z,18.20
2018-09-22T16:11:41.175Z,18.20
2018-09-22T16:14:09.437Z,18.10
2018-09-22T16:16:37.752Z,18.10
2018-09-22T16:19:06.087Z,18.10
2018-09-22T16:21:34.251Z,18.00
2018-09-22T16:24:02.595Z,18.00
2018-09-22T16:26:30.842Z,17.90
2018-09-22T16:28:58.902Z,17.90
2018-09-22T16:31:27.085Z,17.80
2018-09-22T16:33:55.319Z,17.80
2018-09-22T16:36:23.489Z,17.70
2018-09-22T16:38:51.660Z,17.60
2018-09-22T16:41:19.853Z,17.60
2018-09-22T16:43:48.136Z,17.50
2018-09-22T16:46:16.289Z,17.50
2018-09-22T16:48:44.448Z,17.40
2018-09-22T16:51:12.585Z,17.30
2018-09-22T16:53:40.745Z,17.30
2018-09-22T16:56:08.952Z,17.30
2018-09-22T16:58:37.230Z,17.30
2018-09-22T17:01:05.351Z,17.20
2018-09-22T17:03:33.555Z,17.10
2018-09-22T17:06:01.733Z,17.10
2018-09-22T17:08:30.081Z,17.10
2018-09-22T17:10:58.297Z,17.00
2018-09-22T17:13:26.536Z,17.00
2018-09-22T17:15:55.658Z,17.00
2018-09-22T17:18:23.780Z,16.90
2018-09-22T17:20:51.941Z,16.80
2018-09-22T17:23:20.074Z,16.80
2018-09-22T17:25:48.288Z,16.70
2018-09-22T17:28:16.461Z,16.70
2018-09-22T17:30:44.609Z,16.60
2018-09-22T17:33:13.846Z,16.70
2018-09-22T17:35:41.975Z,16.70
2018-09-22T17:38:10.339Z,16.70
2018-09-22T17:40:38.515Z,16.70
2018-09-22T17:43:06.853Z,16.80
2018-09-22T17:45:35.076Z,16.80
2018-09-22T17:48:03.282Z,16.80
2018-09-22T17:50:31.414Z,16.70
2018-09-22T17:52:59.495Z,16.70
2018-09-22T17:55:27.704Z,16.70
2018-09-22T17:57:55.862Z,16.70
2018-09-22T18:00:24.198Z,16.70
2018-09-22T18:02:52.404Z,16.60
2018-09-22T18:05:20.600Z,16.60
2018-09-22T18:07:48.859Z,16.60
2018-09-22T18:10:17.140Z,16.60
2018-09-22T18:12:45.320Z,16.60
2018-09-22T18:15:13.530Z,16.60
2018-09-22T18:17:41.724Z,16.60
2018-09-22T18:20:10.227Z,16.60
2018-09-22T18:22:38.417Z,16.70
2018-09-22T18:25:07.019Z,16.70
2018-09-22T18:27:35.255Z,16.70
2018-09-22T18:30:03.570Z,16.60
2018-09-22T18:32:31.715Z,16.60
2018-09-22T18:35:00.052Z,16.60
2018-09-22T18:37:28.254Z,16.60
2018-09-22T18:39:56.463Z,16.60
2018-09-22T18:42:24.661Z,16.60
2018-09-22T18:44:53.045Z,16.50
2018-09-22T18:47:24.562Z,16.50
2018-09-22T18:49:52.790Z,16.50
2018-09-22T18:52:21.090Z,16.40
2018-09-22T18:54:49.450Z,16.40
2018-09-22T18:57:17.719Z,16.40
2018-09-22T18:59:45.977Z,16.40
2018-09-22T19:02:14.213Z,16.40
2018-09-22T19:04:42.540Z,16.30
2018-09-22T19:07:10.830Z,16.30
2018-09-22T19:09:38.977Z,16.40
2018-09-22T19:12:07.779Z,16.30
2018-09-22T19:14:40.718Z,16.30
2018-09-22T19:17:44.472Z,16.30
2018-09-22T19:20:17.185Z,16.30
2018-09-22T19:22:51.275Z,16.20
2018-09-22T19:25:21.721Z,16.20
2018-09-22T19:27:58.117Z,16.20
2018-09-22T19:30:32.027Z,16.20
2018-09-22T19:33:04.857Z,16.10
2018-09-22T19:35:38.241Z,16.10
2018-09-22T19:38:15.896Z,16.00
2018-09-22T19:40:48.412Z,16.00
2018-09-22T19:43:35.781Z,16.00
2018-09-22T19:47:08.475Z,15.90
2018-09-22T19:49:41.236Z,15.90
2018-09-22T19:52:12.754Z,15.90
2018-09-22T19:54:41.033Z,15.90
2018-09-22T19:57:09.400Z,15.90
2018-09-22T19:59:37.852Z,15.90
2018-09-22T20:02:05.970Z,15.90
2018-09-22T20:04:34.288Z,15.90
2018-09-22T20:07:02.472Z,15.90
2018-09-22T20:09:30.700Z,15.90
2018-09-22T20:11:58.942Z,15.80
2018-09-22T20:14:27.093Z,15.80
2018-09-22T20:16:55.308Z,15.80
2018-09-22T20:19:23.523Z,15.80
2018-09-22T20:21:51.678Z,15.70
2018-09-22T20:24:19.799Z,15.70
2018-09-22T20:26:47.934Z,15.60
2018-09-22T20:29:16.040Z,15.60
2018-09-22T20:31:44.440Z,15.60
2018-09-22T20:34:12.589Z,15.50
2018-09-22T20:36:40.773Z,15.50
2018-09-22T20:39:09.574Z,15.50
2018-09-22T20:41:37.680Z,15.40
2018-09-22T20:44:05.890Z,15.30
2018-09-22T20:46:34.109Z,15.30
2018-09-22T20:49:02.372Z,15.30
2018-09-22T20:51:30.601Z,15.20
2018-09-22T20:53:58.918Z,15.10
2018-09-22T20:56:27.139Z,15.10
2018-09-22T20:58:56.037Z,15.00
2018-09-22T21:01:24.224Z,15.00
2018-09-22T21:03:53.097Z,15.00
2018-09-22T21:06:21.275Z,14.90
2018-09-22T21:08:49.620Z,14.90
2018-09-22T21:11:17.767Z,14.90
2018-09-22T21:13:46.170Z,14.80
2018-09-22T21:16:14.441Z,14.80
2018-09-22T21:18:42.674Z,14.70
2018-09-22T21:21:12.066Z,14.70
2018-09-22T21:23:40.291Z,14.60
2018-09-22T21:26:08.587Z,14.60
2018-09-22T21:28:36.774Z,14.60
2018-09-22T21:31:05.740Z,14.50
2018-09-22T21:33:34.548Z,14.50
2018-09-22T21:36:02.868Z,14.50
2018-09-22T21:38:31.099Z,14.50
2018-09-22T21:40:59.377Z,14.50
2018-09-22T21:43:27.625Z,14.50
2018-09-22T21:45:56.161Z,14.50
2018-09-22T21:48:24.355Z,14.50
2018-09-22T21:50:52.668Z,14.50
2018-09-22T21:53:20.923Z,14.50
2018-09-22T21:55:52.433Z,14.50
2018-09-22T21:58:21.054Z,14.50
2018-09-22T22:00:50.662Z,14.50
2018-09-22T22:03:19.705Z,14.50
2018-09-22T22:05:54.782Z,14.40
2018-09-22T22:08:23.115Z,14.40
2018-09-22T22:10:51.279Z,14.40
2018-09-22T22:13:19.533Z,14.40
2018-09-22T22:15:47.999Z,14.40
2018-09-22T22:18:16.231Z,14.30
2018-09-22T22:20:44.470Z,14.30
2018-09-22T22:23:12.768Z,14.30
2018-09-22T22:25:42.682Z,14.30
2018-09-22T22:28:10.851Z,14.20
2018-09-22T22:30:39.680Z,14.20
2018-09-22T22:33:07.959Z,14.10
2018-09-22T22:35:36.408Z,14.10
2018-09-22T22:38:04.730Z,14.00
2018-09-22T22:40:32.964Z,14.10
2018-09-22T22:43:01.139Z,14.00
2018-09-22T22:45:29.418Z,14.00
2018-09-22T22:47:58.238Z,13.90
2018-09-22T22:50:26.351Z,13.90
2018-09-22T22:52:54.548Z,13.90
2018-09-22T22:55:23.858Z,13.90
2018-09-22T22:57:52.170Z,13.80
2018-09-22T23:00:20.524Z,13.80
2018-09-22T23:02:48.759Z,13.80
2018-09-22T23:05:16.928Z,13.80
2018-09-22T23:07:45.231Z,13.80
2018-09-22T23:10:13.403Z,13.80
2018-09-22T23:12:41.661Z,13.80
2018-09-22T23:15:10.535Z,13.70
2018-09-22T23:17:38.781Z,13.70
2018-09-22T23:20:07.177Z,13.70
2018-09-22T23:22:35.333Z,13.60
2018-09-22T23:25:04.385Z,13.60
2018-09-22T23:27:32.636Z,13.60
2018-09-22T23:30:00.796Z,13.60
2018-09-22T23:32:28.912Z,13.50
2018-09-22T23:34:57.119Z,13.50
2018-09-22T23:37:26.102Z,13.50
2018-09-22T23:39:54.247Z,13.50
2018-09-22T23:42:22.456Z,13.50
2018-09-22T23:44:51.397Z,13.50
2018-09-22T23:47:19.585Z,13.50
2018-09-22T23:49:47.803Z,13.50
2018-09-22T23:52:16.055Z,13.50
2018-09-22T23:54:44.300Z,13.40
2018-09-22T23:57:12.436Z,13.40
2018-09-22T23:59:40.730Z,13.40
